Time;durP1;ratioP1;P1;durP2;ratioP2;P2;SDS_P1;SDS_P2;PMS_P1;PMS_P2;Temp;Humidity;BMP_temperature;BMP_pressure;BME280_temperature;BME280_humidity;BME280_pressure;Samples;Min_cycle;Max_cycle;Signal;HPM_P1;HPM_P2
2023/05/25 00:00:10;;;;;;;5.47;2.50;;;;;;;11.30;70.92;98503.53;5096199;28;20563;-77
2023/05/25 00:02:38;;;;;;;6.27;3.07;;;;;;;11.29;70.22;98504.56;5096344;28;20209;-77
2023/05/25 00:05:05;;;;;;;5.80;2.67;;;;;;;11.30;70.92;98497.41;5096481;28;20211;-77
2023/05/25 00:07:32;;;;;;;7.47;2.70;;;;;;;11.28;70.95;98495.75;5096286;28;20196;-77
2023/05/25 00:09:58;;;;;;;10.43;2.90;;;;;;;11.27;71.45;98511.13;5096709;28;20206;-77
2023/05/25 00:12:24;;;;;;;7.50;2.83;;;;;;;11.19;71.52;98501.56;5096101;28;20208;-77
2023/05/25 00:14:51;;;;;;;6.23;2.83;;;;;;;11.12;72.36;98506.09;5096018;28;20204;-77
2023/05/25 00:17:17;;;;;;;8.03;3.00;;;;;;;11.14;72.51;98504.84;5095539;28;20594;-77
2023/05/25 00:19:45;;;;;;;7.57;3.07;;;;;;;11.07;73.01;98496.09;5096030;28;20204;-77
2023/05/25 00:22:11;;;;;;;8.17;2.70;;;;;;;10.99;72.91;98500.81;5095969;28;20211;-77
2023/05/25 00:24:39;;;;;;;11.47;3.23;;;;;;;11.03;74.10;98502.03;5095331;28;20659;-77
2023/05/25 00:27:06;;;;;;;7.23;2.87;;;;;;;11.06;73.69;98501.63;5095617;28;20220;-77
2023/05/25 00:29:34;;;;;;;11.13;2.93;;;;;;;11.05;73.94;98495.47;5095856;28;20207;-77
2023/05/25 00:32:01;;;;;;;9.47;3.20;;;;;;;11.01;73.99;98494.25;5095817;28;20204;-77
2023/05/25 00:34:28;;;;;;;7.40;2.93;;;;;;;11.04;72.96;98499.16;5095973;28;20200;-77
2023/05/25 00:36:55;;;;;;;6.77;2.70;;;;;;;11.03;73.53;98502.03;5095595;28;20224;-77
2023/05/25 00:39:21;;;;;;;8.07;3.20;;;;;;;10.96;72.48;98502.03;5095690;28;20235;-78
2023/05/25 00:41:49;;;;;;;8.17;3.30;;;;;;;11.03;73.63;98496.69;5095664;28;20204;-77
2023/05/25 00:44:20;;;;;;;10.07;2.83;;;;;;;11.07;73.56;98503.25;5095311;28;20211;-77
2023/05/25 00:46:51;;;;;;;6.10;2.97;;;;;;;11.07;73.57;98497.13;5095528;28;20461;-77
2023/05/25 00:49:19;;;;;;;8.10;2.97;;;;;;;11.05;73.23;98497.31;5095377;28;20215;-77
2023/05/25 00:51:47;;;;;;;5.80;2.60;;;;;;;11.01;73.14;98499.56;5095398;28;20204;-77
2023/05/25 00:54:17;;;;;;;9.27;3.40;;;;;;;11.05;72.76;98492.81;5095543;28;20611;-77
2023/05/25 00:56:51;;;;;;;8.10;2.83;;;;;;;11.03;72.62;98491.38;5095347;28;20228;-78
2023/05/25 00:59:28;;;;;;;12.37;3.40;;;;;;;11.07;74.83;98497.13;5095075;28;20635;-77
2023/05/25 01:01:56;;;;;;;8.87;3.00;;;;;;;11.07;73.50;98484.63;5095333;28;20192;-77
2023/05/25 01:04:23;;;;;;;7.23;2.87;;;;;;;11.12;72.95;98479.47;5095116;28;20208;-77
2023/05/25 01:06:52;;;;;;;7.47;2.73;;;;;;;10.99;73.17;98474.19;5095042;28;20220;-77
2023/05/25 01:09:21;;;;;;;7.03;3.20;;;;;;;11.02;74.17;98479.94;5077347;28;20206;-77
2023/05/25 01:11:50;;;;;;;7.23;2.90;;;;;;;10.98;74.01;98471.78;5095262;28;20210;-77
2023/05/25 01:14:21;;;;;;;8.67;3.17;;;;;;;10.99;74.27;98476.88;5094976;28;20215;-77
2023/05/25 01:16:50;;;;;;;6.57;2.80;;;;;;;10.88;75.07;98477.53;5094682;28;20228;-77
2023/05/25 01:19:17;;;;;;;6.90;2.83;;;;;;;10.68;75.82;98480.25;5094910;28;20592;-77
2023/05/25 01:22:31;;;;;;;7.40;2.67;;;;;;;10.69;76.86;98478.44;5094898;28;20286;-77
2023/05/25 01:25:08;;;;;;;7.63;3.07;;;;;;;10.71;77.66;98487.00;5075546;28;20207;-77
2023/05/25 01:27:46;;;;;;;7.57;2.93;;;;;;;10.78;75.47;98477.97;5095617;28;20184;-77
2023/05/25 01:30:15;;;;;;;8.30;3.00;;;;;;;10.70;78.07;98480.06;5094707;28;20195;-77
2023/05/25 01:32:43;;;;;;;6.47;3.07;;;;;;;10.76;77.01;98473.88;5094653;28;20227;-77
2023/05/25 01:35:10;;;;;;;7.50;3.10;;;;;;;10.62;78.97;98472.28;5094509;28;20208;-77
2023/05/25 01:37:38;;;;;;;9.97;4.40;;;;;;;10.63;77.53;98473.91;5093614;28;20239;-77
2023/05/25 01:40:05;;;;;;;9.20;2.93;;;;;;;10.57;77.20;98472.94;5094517;28;20295;-77
2023/05/25 01:42:32;;;;;;;5.80;3.07;;;;;;;10.51;79.76;98480.94;5094529;28;20208;-77
2023/05/25 01:44:59;;;;;;;8.77;3.23;;;;;;;10.55;77.13;98477.63;5094432;28;20211;-77
2023/05/25 01:47:36;;;;;;;8.90;3.13;;;;;;;10.49;78.03;98486.44;5094034;28;20720;-77
2023/05/25 01:50:18;;;;;;;6.60;3.07;;;;;;;10.49;77.01;98485.63;5094384;28;20184;-77
2023/05/25 01:53:02;;;;;;;7.03;3.20;;;;;;;10.58;76.83;98482.53;5094057;28;20188;-77
2023/05/25 01:55:36;;;;;;;8.33;3.40;;;;;;;10.46;77.32;98486.06;5093821;28;20227;-77
2023/05/25 01:58:03;;;;;;;8.43;3.13;;;;;;;10.53;77.39;98484.19;5093822;28;20750;-77
2023/05/25 02:00:31;;;;;;;9.70;3.10;;;;;;;10.53;77.49;98481.53;5094702;28;20204;-77
2023/05/25 02:02:58;;;;;;;9.73;3.27;;;;;;;10.53;77.08;98484.19;5094105;28;20212;-77
2023/05/25 02:05:25;;;;;;;6.13;2.90;;;;;;;10.48;77.14;98486.66;5093992;28;20226;-77
2023/05/25 02:07:52;;;;;;;9.00;3.07;;;;;;;10.39;77.89;98480.75;5094031;28;20272;-77
2023/05/25 02:10:18;;;;;;;11.37;3.50;;;;;;;10.46;76.88;98483.41;5094079;28;20566;-77
2023/05/25 02:12:45;;;;;;;6.07;2.63;;;;;;;10.48;77.48;98478.66;5093958;28;20206;-77
2023/05/25 02:15:11;;;;;;;9.47;3.20;;;;;;;10.47;77.78;98477.88;5093908;28;20546;-77
2023/05/25 02:17:38;;;;;;;8.47;3.23;;;;;;;10.52;78.13;98472.75;5093506;28;20223;-77
2023/05/25 02:20:06;;;;;;;8.70;3.10;;;;;;;10.52;77.13;98464.78;5093891;28;20208;-77
2023/05/25 02:22:33;;;;;;;7.70;3.10;;;;;;;10.45;78.21;98471.13;5093868;28;20242;-77
2023/05/25 02:24:59;;;;;;;9.07;3.30;;;;;;;10.35;79.68;98465.41;5093821;28;20200;-77
2023/05/25 02:27:26;;;;;;;10.00;3.10;;;;;;;10.34;77.90;98458.47;5093548;28;20220;-78
2023/05/25 02:29:52;;;;;;;10.27;3.97;;;;;;;10.38;78.95;98462.34;5093784;28;20202;-77
2023/05/25 02:32:20;;;;;;;8.57;3.20;;;;;;;10.32;78.65;98457.88;5093755;28;20204;-77
2023/05/25 02:34:46;;;;;;;10.97;3.33;;;;;;;10.25;80.09;98449.91;5093721;28;20204;-77
2023/05/25 02:37:13;;;;;;;9.60;3.20;;;;;;;10.25;80.32;98459.72;5093558;28;20277;-77
2023/05/25 02:39:39;;;;;;;7.93;3.43;;;;;;;10.27;80.02;98460.34;5093877;28;20204;-77
2023/05/25 02:42:06;;;;;;;7.33;3.27;;;;;;;10.24;80.98;98458.91;5093555;28;20211;-77
2023/05/25 02:44:32;;;;;;;8.67;3.23;;;;;;;10.18;81.56;98454.41;5093239;28;20666;-77
2023/05/25 02:46:59;;;;;;;6.87;3.10;;;;;;;10.15;83.75;98459.31;5093412;28;20227;-77
2023/05/25 02:49:25;;;;;;;9.70;3.30;;;;;;;10.09;82.19;98452.19;5096338;28;20208;-77
2023/05/25 02:51:51;;;;;;;9.53;3.60;;;;;;;9.99;82.10;98457.88;5097806;28;20213;-77
2023/05/25 02:54:18;;;;;;;5.83;3.10;;;;;;;10.07;83.83;98457.69;5097709;28;20214;-77
2023/05/25 02:56:44;;;;;;;7.33;3.77;;;;;;;10.02;85.45;98460.13;5097167;28;20687;-77
2023/05/25 02:59:11;;;;;;;7.40;3.27;;;;;;;9.98;86.88;98458.91;5097304;28;20242;-77
2023/05/25 03:01:39;;;;;;;7.07;3.23;;;;;;;9.87;86.38;98466.66;5097559;28;20288;-77
2023/05/25 03:04:05;;;;;;;6.10;3.00;;;;;;;9.80;85.97;98471.13;5097358;28;20294;-77
2023/05/25 03:06:32;;;;;;;7.60;3.50;;;;;;;9.84;84.66;98472.38;5097110;28;20726;-78
2023/05/25 03:08:58;;;;;;;7.90;3.47;;;;;;;9.90;86.98;98471.53;5097385;28;20212;-77
2023/05/25 03:11:25;;;;;;;10.70;3.60;;;;;;;9.85;86.57;98471.34;5097338;28;20554;-77
2023/05/25 03:13:52;;;;;;;9.83;3.43;;;;;;;9.84;87.72;98480.34;5097191;28;20199;-77
2023/05/25 03:16:18;;;;;;;7.73;3.37;;;;;;;9.83;88.24;98479.50;5097003;28;20235;-77
2023/05/25 03:18:44;;;;;;;7.30;3.60;;;;;;;9.82;85.59;98479.75;5097143;28;20310;-77
2023/05/25 03:21:11;;;;;;;8.43;3.43;;;;;;;9.87;85.41;98488.69;5097124;28;20204;-77
2023/05/25 03:23:37;;;;;;;8.67;3.30;;;;;;;9.80;86.76;98487.06;5096952;28;20204;-77
2023/05/25 03:26:03;;;;;;;10.47;3.53;;;;;;;9.73;84.29;98494.22;5096814;28;20231;-77
2023/05/25 03:28:30;;;;;;;7.70;3.70;;;;;;;9.84;85.37;98488.31;5096741;28;20200;-77
2023/05/25 03:30:56;;;;;;;8.40;3.77;;;;;;;9.74;86.72;98491.34;5096715;28;20230;-77
2023/05/25 03:33:22;;;;;;;6.70;3.47;;;;;;;9.61;86.45;98491.34;5096763;28;20206;-77
2023/05/25 03:35:49;;;;;;;8.63;3.27;;;;;;;9.64;86.33;98482.97;5096690;28;20597;-77
2023/05/25 03:38:15;;;;;;;7.83;3.50;;;;;;;9.62;87.50;98484.19;5096740;28;20239;-77
2023/05/25 03:40:42;;;;;;;8.43;3.63;;;;;;;9.65;86.61;98497.06;5096388;28;20569;-77
2023/05/25 03:43:08;;;;;;;8.97;3.87;;;;;;;9.63;86.72;98477.84;5096628;28;20211;-77
2023/05/25 03:45:35;;;;;;;7.23;3.73;;;;;;;9.64;86.67;98479.50;5096186;28;20223;-77
2023/05/25 03:48:01;;;;;;;7.73;3.70;;;;;;;9.67;87.62;98481.75;5096628;28;20206;-77
2023/05/25 03:50:27;;;;;;;9.33;3.60;;;;;;;9.63;87.35;98485.81;5096975;28;20200;-77
2023/05/25 03:52:54;;;;;;;11.60;3.80;;;;;;;9.64;87.59;98485.63;5096597;28;20204;-77
2023/05/25 03:55:20;;;;;;;10.33;3.77;;;;;;;9.62;86.73;98490.34;5096257;28;20255;-77
2023/05/25 03:57:46;;;;;;;9.33;3.73;;;;;;;9.63;88.85;98502.56;5096387;28;20220;-77
2023/05/25 04:00:14;;;;;;;10.77;3.53;;;;;;;9.68;86.85;98504.66;5095098;28;20211;-77
2023/05/25 04:02:40;;;;;;;8.57;4.20;;;;;;;9.80;86.50;98501.19;5096161;28;20203;-78
2023/05/25 04:05:07;;;;;;;8.00;3.80;;;;;;;9.57;87.50;98510.53;5095907;28;20208;-77
2023/05/25 04:07:35;;;;;;;11.60;4.23;;;;;;;9.57;88.38;98503.41;5096160;28;20287;-77
2023/05/25 04:10:02;;;;;;;10.63;4.10;;;;;;;9.67;88.67;98508.28;5096118;28;20274;-77
2023/05/25 04:12:28;;;;;;;8.63;4.00;;;;;;;9.60;89.84;98505.63;5096254;28;20203;-78
2023/05/25 04:14:55;;;;;;;9.43;4.40;;;;;;;9.42;89.33;98517.84;5096191;28;20208;-78
2023/05/25 04:17:23;;;;;;;10.70;4.27;;;;;;;9.51;90.04;98519.31;5095421;28;20236;-77
2023/05/25 04:19:50;;;;;;;7.90;4.60;;;;;;;9.47;89.93;98512.75;5095663;28;20249;-77
2023/05/25 04:22:16;;;;;;;10.57;4.43;;;;;;;9.53;90.20;98517.25;5096034;28;20215;-77
2023/05/25 04:24:43;;;;;;;9.73;3.60;;;;;;;9.47;89.36;98512.75;5096238;28;20203;-78
2023/05/25 04:27:10;;;;;;;9.83;4.20;;;;;;;9.44;90.35;98507.84;5095725;28;20589;-78
2023/05/25 04:29:37;;;;;;;11.80;4.20;;;;;;;9.51;91.20;98514.00;5095953;28;20200;-77
2023/05/25 04:32:03;;;;;;;8.93;4.33;;;;;;;9.47;90.83;98510.09;5095745;28;20236;-77
2023/05/25 04:34:32;;;;;;;7.90;3.80;;;;;;;9.47;90.54;98516.25;5095422;28;20208;-77
2023/05/25 04:37:02;;;;;;;12.80;4.20;;;;;;;9.47;93.27;98512.75;5096164;28;20680;-77
2023/05/25 04:39:28;;;;;;;10.23;4.30;;;;;;;9.66;90.73;98518.13;5095301;28;20204;-77
2023/05/25 04:41:56;;;;;;;7.43;4.07;;;;;;;9.69;90.87;98519.53;5095606;28;20210;-77
2023/05/25 04:44:22;;;;;;;9.10;3.73;;;;;;;9.84;89.51;98520.16;5094881;28;20202;-78
2023/05/25 04:46:49;;;;;;;12.00;4.40;;;;;;;9.72;90.00;98527.09;5095199;28;20227;-77
2023/05/25 04:49:17;;;;;;;9.13;4.13;;;;;;;9.63;91.05;98520.34;5095473;28;20214;-78
2023/05/25 04:51:44;;;;;;;11.03;3.90;;;;;;;9.71;91.61;98525.47;5095353;28;20252;-77
2023/05/25 04:54:10;;;;;;;10.20;6.50;;;;;;;9.89;91.29;98528.34;5094806;28;20215;-77
2023/05/25 04:56:36;;;;;;;11.37;4.40;;;;;;;9.79;90.36;98522.63;5095494;28;20232;-77
2023/05/25 04:59:03;;;;;;;9.57;4.50;;;;;;;10.05;90.77;98526.13;5094732;28;20223;-77
2023/05/25 05:01:33;;;;;;;11.90;5.33;;;;;;;10.46;87.55;98520.59;5094762;28;20208;-77
2023/05/25 05:03:59;;;;;;;11.17;4.73;;;;;;;11.16;85.00;98523.25;5094710;28;20750;-77
2023/05/25 05:06:25;;;;;;;10.87;4.10;;;;;;;11.88;81.18;98526.38;5094604;28;20266;-77
2023/05/25 05:08:52;;;;;;;7.50;3.93;;;;;;;11.93;75.87;98536.41;5094532;28;20663;-78
2023/05/25 05:11:18;;;;;;;10.70;4.50;;;;;;;12.67;73.51;98532.69;5094749;28;20204;-77
2023/05/25 05:13:44;;;;;;;11.43;4.10;;;;;;;12.52;71.59;98531.41;5094551;28;20204;-74
2023/05/25 05:16:11;;;;;;;7.70;4.00;;;;;;;12.15;73.60;98524.31;5094735;28;20239;-74
2023/05/25 05:18:37;;;;;;;10.50;3.70;;;;;;;11.54;75.06;98534.78;5094674;28;20227;-74
2023/05/25 05:21:04;;;;;;;9.30;4.00;;;;;;;12.04;75.33;98549.84;5094672;28;20210;-74
2023/05/25 05:23:32;;;;;;;11.20;4.20;;;;;;;12.43;73.83;98552.19;5094101;28;20658;-74
2023/05/25 05:25:59;;;;;;;10.23;4.33;;;;;;;11.93;76.03;98553.19;5094616;28;20228;-74
2023/05/25 05:28:26;;;;;;;10.83;3.90;;;;;;;11.71;77.08;98559.09;5094374;28;20562;-75
2023/05/25 05:30:53;;;;;;;11.50;3.97;;;;;;;11.16;80.86;98560.53;5094386;28;20200;-74
2023/05/25 05:33:19;;;;;;;13.53;4.17;;;;;;;11.20;81.47;98564.41;5094739;28;20218;-74
2023/05/25 05:35:46;;;;;;;11.60;4.10;;;;;;;11.44;81.42;98571.66;5094099;28;20228;-74
2023/05/25 05:38:12;;;;;;;9.80;4.50;;;;;;;11.40;77.83;98567.78;5094680;28;20226;-74
2023/05/25 05:40:39;;;;;;;11.23;3.80;;;;;;;11.34;81.38;98565.19;5094401;28;20214;-74
2023/05/25 05:43:05;;;;;;;11.90;4.57;;;;;;;11.23;79.31;98561.31;5094191;28;20204;-74
2023/05/25 05:45:32;;;;;;;10.03;4.10;;;;;;;11.07;79.82;98569.75;5093692;28;20775;-74
2023/05/25 05:47:58;;;;;;;10.87;4.07;;;;;;;11.42;79.98;98564.91;5094116;28;20200;-74
2023/05/25 05:50:25;;;;;;;10.60;4.50;;;;;;;11.75;80.79;98565.63;5094282;28;20211;-74
2023/05/25 05:52:52;;;;;;;8.80;4.20;;;;;;;11.78;78.72;98575.81;5093871;28;20204;-74
2023/05/25 05:55:19;;;;;;;10.23;4.37;;;;;;;11.46;79.13;98577.59;5093524;28;20675;-74
2023/05/25 05:57:45;;;;;;;8.50;4.50;;;;;;;11.16;79.78;98591.66;5093452;28;20216;-74
2023/05/25 06:00:12;;;;;;;10.50;4.03;;;;;;;11.37;80.50;98581.53;5093883;28;20208;-74
2023/05/25 06:02:39;;;;;;;13.77;4.53;;;;;;;11.55;78.56;98594.97;5093783;28;20207;-74
2023/05/25 06:05:05;;;;;;;11.50;4.40;;;;;;;11.77;78.26;98598.16;5093617;28;20206;-74
2023/05/25 06:07:34;;;;;;;9.60;4.60;;;;;;;11.82;79.93;98590.34;5093474;28;20203;-74
2023/05/25 06:10:01;;;;;;;11.63;4.20;;;;;;;11.40;79.99;98597.06;5093307;28;20573;-75
2023/05/25 06:12:27;;;;;;;11.00;4.63;;;;;;;11.95;80.53;98599.09;5093171;28;20664;-74
2023/05/25 06:14:54;;;;;;;9.13;4.27;;;;;;;11.91;79.39;98591.75;5093352;28;20310;-74
2023/05/25 06:17:20;;;;;;;9.63;4.60;;;;;;;11.39;79.47;98598.09;5093357;28;20247;-74
2023/05/25 06:19:48;;;;;;;11.13;4.50;;;;;;;11.32;81.68;98596.50;5093769;28;20204;-74
2023/05/25 06:22:15;;;;;;;11.20;4.77;;;;;;;11.73;80.62;98597.78;5093540;28;20215;-74
2023/05/25 06:24:41;;;;;;;11.23;4.37;;;;;;;12.11;79.06;98601.25;5092980;28;20203;-74
2023/05/25 06:27:08;;;;;;;9.03;4.33;;;;;;;12.06;80.08;98590.41;5092829;28;20220;-74
2023/05/25 06:29:34;;;;;;;10.33;4.03;;;;;;;11.98;78.70;98592.53;5091610;28;20248;-73
2023/05/25 06:32:01;;;;;;;10.17;4.63;;;;;;;12.28;78.44;98591.69;5093314;28;20204;-74
2023/05/25 06:34:27;;;;;;;11.20;4.53;;;;;;;12.21;78.47;98592.78;5093384;28;20207;-74
2023/05/25 06:36:53;;;;;;;12.07;4.83;;;;;;;12.38;77.67;98589.34;5093186;28;20228;-74
2023/05/25 06:39:20;;;;;;;9.80;4.20;;;;;;;12.51;79.21;98583.91;5092252;28;20238;-74
2023/05/25 06:41:46;;;;;;;11.87;4.27;;;;;;;12.29;77.87;98605.84;5093480;28;20200;-74
2023/05/25 06:44:12;;;;;;;11.40;5.13;;;;;;;12.15;77.91;98602.44;5093514;28;20203;-74
2023/05/25 06:46:40;;;;;;;12.93;4.57;;;;;;;12.35;79.76;98588.97;5092935;28;20234;-74
2023/05/25 06:49:06;;;;;;;10.10;4.60;;;;;;;12.52;80.05;98598.06;5092865;28;20212;-74
2023/05/25 06:51:32;;;;;;;12.17;4.77;;;;;;;12.62;78.77;98599.19;5093250;28;20214;-74
2023/05/25 06:53:59;;;;;;;11.10;4.97;;;;;;;12.69;79.93;98599.13;5093357;28;20210;-74
2023/05/25 06:56:26;;;;;;;11.03;4.63;;;;;;;12.64;79.53;98601.66;5093368;28;20226;-74
2023/05/25 06:58:53;;;;;;;9.63;4.77;;;;;;;12.73;78.93;98609.16;5092859;28;20632;-74
2023/05/25 07:01:19;;;;;;;10.63;5.10;;;;;;;12.85;80.83;98604.72;5093126;28;20211;-74
2023/05/25 07:03:45;;;;;;;10.33;4.80;;;;;;;12.88;80.92;98612.31;5093391;28;20210;-74
2023/05/25 07:06:12;;;;;;;13.33;4.90;;;;;;;12.43;80.28;98618.84;5093096;28;20231;-74
2023/05/25 07:08:38;;;;;;;11.27;4.67;;;;;;;12.85;79.54;98610.06;5093136;28;20202;-74
2023/05/25 07:11:05;;;;;;;14.97;5.00;;;;;;;12.57;79.46;98617.72;5092902;28;20208;-74
2023/05/25 07:13:31;;;;;;;10.27;4.60;;;;;;;12.70;79.19;98612.25;5092828;28;20745;-74
2023/05/25 07:15:58;;;;;;;13.33;4.67;;;;;;;12.67;79.75;98609.22;5092723;28;20292;-74
2023/05/25 07:18:24;;;;;;;11.97;4.87;;;;;;;12.88;81.02;98612.31;5093158;28;20231;-74
2023/05/25 07:20:50;;;;;;;11.23;4.93;;;;;;;13.07;79.20;98616.66;5093162;28;20207;-74
2023/05/25 07:23:17;;;;;;;9.87;4.90;;;;;;;12.83;78.97;98622.81;5093210;28;20217;-74
2023/05/25 07:25:43;;;;;;;10.07;5.13;;;;;;;12.97;79.99;98626.22;5092972;28;20226;-74
2023/05/25 07:28:10;;;;;;;12.80;5.37;;;;;;;13.08;80.91;98615.66;5092990;28;20233;-74
2023/05/25 07:30:36;;;;;;;10.17;4.53;;;;;;;13.07;79.86;98619.31;5093030;28;20214;-74
2023/05/25 07:33:02;;;;;;;14.03;5.27;;;;;;;13.04;81.96;98626.97;5093097;28;20203;-74
2023/05/25 07:35:29;;;;;;;12.87;5.03;;;;;;;13.13;81.51;98626.47;5093778;28;20255;-74
2023/05/25 07:38:03;;;;;;;11.33;5.40;;;;;;;13.26;82.42;98618.31;5096437;28;20667;-75
2023/05/25 07:40:29;;;;;;;10.20;5.00;;;;;;;13.25;79.60;98629.22;5097016;28;20288;-75
2023/05/25 07:42:56;;;;;;;12.10;5.47;;;;;;;13.29;80.96;98615.19;5096086;28;20667;-74
2023/05/25 07:45:23;;;;;;;11.27;5.20;;;;;;;13.43;80.56;98626.56;5096394;28;20227;-75
2023/05/25 07:47:49;;;;;;;16.60;5.40;;;;;;;13.73;80.62;98628.22;5096253;28;20204;-74
2023/05/25 07:50:16;;;;;;;9.90;5.23;;;;;;;13.76;78.05;98629.63;5096659;28;20204;-74
2023/05/25 07:52:42;;;;;;;9.50;4.80;;;;;;;13.72;79.59;98629.28;5096148;28;20208;-74
2023/05/25 07:55:09;;;;;;;12.23;5.63;;;;;;;13.74;79.46;98626.38;5096381;28;20200;-75
2023/05/25 07:57:36;;;;;;;11.13;5.13;;;;;;;13.85;80.01;98626.44;5096263;28;20289;-74
2023/05/25 08:00:05;;;;;;;10.73;5.13;;;;;;;13.82;79.67;98626.88;5095969;28;20215;-74
2023/05/25 08:02:31;;;;;;;14.63;5.80;;;;;;;13.99;80.63;98625.22;5096212;28;20203;-74
2023/05/25 08:04:58;;;;;;;12.33;5.80;;;;;;;14.02;77.69;98626.63;5096058;28;20200;-74
2023/05/25 08:07:25;;;;;;;10.07;5.23;;;;;;;14.08;76.79;98621.19;5095773;28;20707;-74
2023/05/25 08:09:51;;;;;;;7.70;5.27;;;;;;;14.21;78.22;98625.56;5096129;28;20208;-75
2023/05/25 08:12:17;;;;;;;11.33;5.73;;;;;;;14.09;76.61;98609.44;5095658;28;20195;-74
2023/05/25 08:14:44;;;;;;;9.67;5.77;;;;;;;14.60;79.20;98614.25;5095673;28;20200;-74
2023/05/25 08:17:10;;;;;;;10.77;5.70;;;;;;;14.82;77.25;98610.78;5095823;28;20241;-74
2023/05/25 08:19:36;;;;;;;12.37;5.83;;;;;;;15.02;74.51;98613.09;5095695;28;20230;-75
2023/05/25 08:22:03;;;;;;;12.63;5.50;;;;;;;15.05;76.12;98607.25;5095981;28;20722;-75
2023/05/25 08:24:29;;;;;;;9.50;6.00;;;;;;;15.30;76.37;98615.88;5095945;28;20200;-74
2023/05/25 08:26:55;;;;;;;12.50;5.70;;;;;;;15.21;74.43;98609.25;5095697;28;20234;-75
2023/05/25 08:29:22;;;;;;;8.23;5.50;;;;;;;15.21;74.38;98620.78;5095639;28;20204;-74
2023/05/25 08:31:49;;;;;;;12.23;5.77;;;;;;;15.39;74.47;98623.34;5095312;28;20207;-74
2023/05/25 08:34:16;;;;;;;11.90;5.93;;;;;;;15.39;73.51;98615.31;5095713;28;20207;-74
2023/05/25 08:36:43;;;;;;;10.23;5.83;;;;;;;15.35;74.37;98624.03;5095104;28;20596;-74
2023/05/25 08:39:10;;;;;;;13.70;6.13;;;;;;;15.47;72.94;98627.53;5095458;28;20258;-74
2023/05/25 08:41:41;;;;;;;10.00;5.90;;;;;;;15.69;75.67;98633.91;5095301;28;20239;-74
2023/05/25 08:44:07;;;;;;;10.93;5.80;;;;;;;15.78;76.56;98627.91;5096833;28;20184;-74
2023/05/25 08:46:34;;;;;;;8.23;5.60;;;;;;;15.93;72.83;98630.09;5096023;28;20232;-75
2023/05/25 08:49:11;;;;;;;15.10;6.10;;;;;;;16.22;69.36;98637.88;5095475;28;20481;-74
2023/05/25 08:51:42;;;;;;;12.27;6.53;;;;;;;16.23;70.13;98633.31;5095465;28;20239;-74
2023/05/25 08:54:10;;;;;;;15.13;6.33;;;;;;;15.97;70.59;98632.03;5095129;28;20184;-74
2023/05/25 08:56:56;;;;;;;11.73;6.10;;;;;;;16.24;70.43;98633.06;5095353;28;20226;-74
2023/05/25 08:59:28;;;;;;;11.90;6.57;;;;;;;16.56;69.78;98625.38;5081829;28;20207;-74
2023/05/25 09:02:08;;;;;;;10.00;5.73;;;;;;;16.53;70.43;98629.34;5095161;28;20192;-74
2023/05/25 09:04:34;;;;;;;11.97;6.07;;;;;;;16.41;70.79;98631.28;5097615;28;20220;-74
2023/05/25 09:07:01;;;;;;;7.80;5.70;;;;;;;16.40;69.10;98620.78;5105901;28;20222;-74
2023/05/25 09:09:28;;;;;;;12.30;5.77;;;;;;;16.65;71.03;98616.66;5098759;28;20200;-74
2023/05/25 09:11:56;;;;;;;11.80;6.60;;;;;;;16.69;69.44;98615.09;5097487;28;20200;-74
2023/05/25 09:14:23;;;;;;;10.60;5.87;;;;;;;17.02;71.09;98620.47;5094719;28;20206;-74
2023/05/25 09:16:50;;;;;;;12.10;5.70;;;;;;;17.25;68.90;98617.59;5094515;28;20243;-74
2023/05/25 09:19:16;;;;;;;10.10;6.20;;;;;;;17.37;69.15;98615.59;5094729;28;20582;-74
2023/05/25 09:21:43;;;;;;;10.47;5.97;;;;;;;17.67;66.43;98618.72;5094708;28;20204;-74
2023/05/25 09:24:10;;;;;;;11.97;5.30;;;;;;;17.84;68.12;98622.16;5094662;28;20212;-74
2023/05/25 09:26:37;;;;;;;10.80;5.63;;;;;;;17.46;65.69;98627.56;5076136;28;20315;-74
2023/05/25 09:29:04;;;;;;;9.53;5.90;;;;;;;17.59;66.16;98627.19;5094477;28;20200;-74
2023/05/25 09:31:31;;;;;;;8.30;5.57;;;;;;;17.74;63.62;98618.53;5094423;28;20215;-74
2023/05/25 09:33:58;;;;;;;11.10;5.47;;;;;;;17.75;65.15;98629.03;5094093;28;20566;-74
2023/05/25 09:36:26;;;;;;;13.17;6.03;;;;;;;17.88;67.12;98625.97;5094244;28;20227;-74
2023/05/25 09:38:54;;;;;;;8.03;5.30;;;;;;;17.70;64.40;98630.84;5094148;28;20219;-74
2023/05/25 09:41:22;;;;;;;10.23;5.83;;;;;;;17.87;65.72;98632.38;5094344;28;20200;-74
2023/05/25 09:43:48;;;;;;;10.80;6.10;;;;;;;17.88;63.08;98628.66;5094726;28;20257;-74
2023/05/25 09:46:14;;;;;;;9.40;5.40;;;;;;;18.06;63.76;98628.28;5094075;28;20231;-74
2023/05/25 09:48:42;;;;;;;12.23;5.37;;;;;;;18.14;64.69;98625.16;5093992;28;20207;-74
2023/05/25 09:51:08;;;;;;;12.87;5.93;;;;;;;17.82;63.82;98618.88;5093735;28;20659;-74
2023/05/25 09:53:35;;;;;;;10.20;5.60;;;;;;;18.24;64.47;98627.16;5094206;28;20204;-74
2023/05/25 09:56:02;;;;;;;9.80;5.00;;;;;;;18.46;62.71;98633.34;5093768;28;20235;-74
2023/05/25 09:58:28;;;;;;;8.83;5.10;;;;;;;18.61;62.43;98638.84;5093298;28;20203;-74
2023/05/25 10:00:55;;;;;;;10.43;6.00;;;;;;;18.20;62.77;98631.41;5094037;28;20199;-74
2023/05/25 10:03:21;;;;;;;10.40;5.27;;;;;;;18.41;62.30;98628.69;5093803;28;20226;-74
2023/05/25 10:05:48;;;;;;;8.87;5.50;;;;;;;18.56;62.17;98622.66;5093911;28;20219;-74
2023/05/25 10:08:20;;;;;;;11.20;5.23;;;;;;;18.74;63.92;98628.44;5093920;28;20233;-74
2023/05/25 10:10:48;;;;;;;10.03;5.63;;;;;;;18.84;62.72;98631.25;5094321;28;20184;-74
2023/05/25 10:13:18;;;;;;;10.50;5.30;;;;;;;18.44;62.06;98628.19;5093778;28;20230;-74
2023/05/25 10:15:47;;;;;;;9.17;5.57;;;;;;;18.97;62.37;98624.59;5094201;28;20220;-74
2023/05/25 10:18:15;;;;;;;10.10;5.40;;;;;;;18.64;61.34;98635.66;5093725;28;20297;-74
2023/05/25 10:20:46;;;;;;;10.63;5.80;;;;;;;18.57;62.18;98637.72;5093598;28;20232;-74
2023/05/25 10:23:20;;;;;;;9.47;5.37;;;;;;;18.46;63.80;98636.81;5075534;28;20643;-74
2023/05/25 10:25:54;;;;;;;9.27;5.70;;;;;;;18.67;63.98;98632.41;5093466;28;20234;-74
2023/05/25 10:28:30;;;;;;;7.77;4.60;;;;;;;18.83;61.77;98637.69;5094159;28;20192;-74
2023/05/25 10:31:00;;;;;;;9.17;5.20;;;;;;;19.18;63.25;98620.97;5092955;28;20681;-74
2023/05/25 10:33:28;;;;;;;6.20;4.63;;;;;;;19.42;60.64;98616.81;5093325;28;20258;-74
2023/05/25 10:35:55;;;;;;;10.20;4.97;;;;;;;19.40;60.85;98618.94;5092847;28;20711;-74
2023/05/25 10:38:22;;;;;;;8.70;5.10;;;;;;;19.83;60.79;98625.91;5093331;28;20203;-74
2023/05/25 10:40:50;;;;;;;7.30;4.90;;;;;;;19.55;59.50;98627.16;5093265;28;20220;-74
2023/05/25 10:43:19;;;;;;;9.47;4.67;;;;;;;19.13;62.15;98624.44;5093249;28;20218;-74
2023/05/25 10:45:45;;;;;;;7.67;4.83;;;;;;;19.03;61.38;98621.69;5092880;28;20235;-74
2023/05/25 10:48:12;;;;;;;9.50;5.17;;;;;;;19.05;62.66;98616.81;5093285;28;20215;-74
2023/05/25 10:50:38;;;;;;;7.47;5.07;;;;;;;19.01;60.75;98621.09;5093105;28;20204;-74
2023/05/25 10:53:12;;;;;;;9.00;5.10;;;;;;;19.20;62.76;98619.66;5093363;28;20200;-74
2023/05/25 10:56:00;;;;;;;7.73;4.43;;;;;;;19.21;61.98;98623.13;5093047;28;20722;-74
2023/05/25 10:58:28;;;;;;;6.47;5.00;;;;;;;19.18;60.77;98624.47;5093309;28;20194;-74
2023/05/25 11:00:58;;;;;;;8.73;5.07;;;;;;;18.83;61.05;98626.09;5093285;28;20219;-74
2023/05/25 11:03:55;;;;;;;8.37;4.70;;;;;;;19.50;60.43;98621.72;5093059;28;20237;-74
2023/05/25 11:06:43;;;;;;;8.67;4.73;;;;;;;19.51;59.20;98628.75;5092842;28;20220;-74
2023/05/25 11:09:30;;;;;;;6.97;4.50;;;;;;;19.79;60.15;98628.31;5093271;28;20249;-74
2023/05/25 11:11:58;;;;;;;7.00;4.33;;;;;;;19.57;60.85;98626.88;5097329;28;20196;-75
2023/05/25 11:14:29;;;;;;;9.07;4.50;;;;;;;19.48;61.68;98613.91;5098749;28;20199;-74
2023/05/25 11:17:13;;;;;;;8.60;5.37;;;;;;;19.88;59.55;98617.81;5096946;28;20259;-74
2023/05/25 11:19:47;;;;;;;8.00;4.93;;;;;;;20.08;59.91;98621.44;5096492;28;20207;-74
2023/05/25 11:22:23;;;;;;;9.17;5.00;;;;;;;20.03;57.84;98618.69;5096951;28;20188;-74
2023/05/25 11:24:51;;;;;;;8.30;4.60;;;;;;;19.98;61.55;98623.28;5096570;28;20192;-74
2023/05/25 11:27:28;;;;;;;10.50;4.73;;;;;;;19.80;58.23;98621.06;5096787;28;20224;-74
2023/05/25 11:29:55;;;;;;;7.80;4.37;;;;;;;19.58;59.14;98621.22;5096299;28;20225;-74
2023/05/25 11:32:21;;;;;;;9.80;5.00;;;;;;;19.76;57.83;98617.25;5096544;28;20207;-74
2023/05/25 11:34:48;;;;;;;7.70;4.70;;;;;;;19.67;59.62;98614.22;5096282;28;20558;-74